RJBB/KIX METAR and TAF weather

Enter ICAO airport designator
Station Type Date Time Source
RJBB METAR 2019/04/25 01:30 UTC NOAA

RJBB 250130Z 26003KT 9000 FEW002 BKN030 BKN040 21/19 Q1005 NOSIG


Station Type Date Time Source
RJBB Decoded METAR 2019/04/25 01:30 UTC NOAA

Kansai International Airport, Japan (RJBB) 34-25N 135-15E 8M
Apr 24, 2019 - 09:30 PM EDT / 2019.04.25 0130 UTC
Wind: from the W (260 degrees) at 3 MPH (3 KT):0
Visibility: 5 mile(s):0
Sky conditions: mostly cloudy
Temperature: 69 F (21 C)
Dew Point: 66 F (19 C)
Relative Humidity: 88%
Pressure (altimeter): 29.68 in. Hg (1005 hPa)
ob: RJBB 250130Z 26003KT 9000 FEW002 BKN030 BKN040 21/19 Q1005 NOSIG
cycle: 1

Station Type Date Time Source
RJBB TAF 2019/04/24 22:46 UTC NOAA

TAF
AMD RJBB 242241Z 2422/2600 21004KT 8000 FEW015 SCT020 BKN045
TEMPO 2422/2500 4000 -SHRA BR
BECMG 2509/2512 04007KT

Example: see airport list